createdAt,value
2019-04-26T00:00:46.440Z,0.00
2019-04-26T00:01:46.411Z,0.00
2019-04-26T00:02:46.510Z,0.00
2019-04-26T00:03:46.359Z,0.00
2019-04-26T00:04:46.327Z,0.00
2019-04-26T00:05:46.311Z,0.00
2019-04-26T00:06:46.276Z,0.00
2019-04-26T00:07:46.253Z,0.00
2019-04-26T00:08:46.314Z,0.00
2019-04-26T00:09:46.200Z,0.00
2019-04-26T00:10:46.190Z,0.00
2019-04-26T00:11:46.170Z,0.00
2019-04-26T00:12:46.120Z,0.00
2019-04-26T00:13:46.120Z,0.00
2019-04-26T00:14:46.067Z,0.00
2019-04-26T00:15:46.045Z,0.00
2019-04-26T00:16:46.014Z,0.00
2019-04-26T00:17:45.992Z,0.00
2019-04-26T00:18:46.553Z,0.00
2019-04-26T00:19:45.936Z,0.00
2019-04-26T00:20:45.916Z,0.00
2019-04-26T00:21:45.883Z,0.00
2019-04-26T00:22:45.878Z,0.00
2019-04-26T00:23:45.854Z,0.00
2019-04-26T00:24:45.804Z,0.00
2019-04-26T00:25:45.779Z,0.00
2019-04-26T00:26:45.752Z,0.00
2019-04-26T00:27:45.723Z,0.00
2019-04-26T00:28:46.087Z,0.00
2019-04-26T00:29:45.680Z,0.00
2019-04-26T00:30:45.644Z,0.00
2019-04-26T00:31:45.670Z,0.00
2019-04-26T00:32:45.588Z,0.00
2019-04-26T00:33:45.566Z,0.00
2019-04-26T00:34:45.562Z,0.00
2019-04-26T00:35:47.916Z,0.00
2019-04-26T00:36:45.485Z,0.00
2019-04-26T00:37:45.459Z,0.00
2019-04-26T00:38:45.434Z,0.00
2019-04-26T00:39:45.431Z,0.00
2019-04-26T00:40:45.380Z,0.00
2019-04-26T00:41:45.353Z,0.00
2019-04-26T00:42:45.332Z,0.00
2019-04-26T00:43:45.297Z,0.00
2019-04-26T00:44:45.306Z,0.00
2019-04-26T00:45:45.247Z,0.00
2019-04-26T00:46:45.218Z,0.00
2019-04-26T00:47:45.193Z,0.00
2019-04-26T00:48:45.166Z,0.00
2019-04-26T00:49:45.175Z,0.00
2019-04-26T00:50:45.120Z,0.00
2019-04-26T00:51:45.093Z,0.00
2019-04-26T00:52:45.131Z,0.00
2019-04-26T00:53:45.040Z,0.00
2019-04-26T00:54:45.044Z,0.00
2019-04-26T00:55:44.979Z,0.00
2019-04-26T00:56:44.969Z,0.00
2019-04-26T00:57:44.932Z,0.00
2019-04-26T00:58:44.897Z,0.00
2019-04-26T00:59:44.909Z,0.00
2019-04-26T01:00:44.845Z,0.00
2019-04-26T01:01:44.825Z,0.00
2019-04-26T01:02:44.799Z,0.00
2019-04-26T01:03:44.768Z,0.00
2019-04-26T01:04:44.769Z,0.00
2019-04-26T01:05:44.720Z,0.00
2019-04-26T01:06:44.702Z,0.00
2019-04-26T01:07:44.661Z,0.00
2019-04-26T01:08:44.679Z,0.00
2019-04-26T01:09:44.609Z,0.00
2019-04-26T01:10:44.602Z,0.00
2019-04-26T01:11:44.563Z,0.00
2019-04-26T01:12:44.532Z,0.00
2019-04-26T01:13:44.500Z,0.00
2019-04-26T01:14:44.481Z,0.00
2019-04-26T01:15:44.475Z,0.00
2019-04-26T01:16:44.419Z,0.00
2019-04-26T01:17:44.406Z,0.00
2019-04-26T01:18:44.368Z,0.00
2019-04-26T01:19:44.346Z,0.00
2019-04-26T01:20:44.335Z,0.00
2019-04-26T01:21:44.288Z,0.00
2019-04-26T01:22:44.257Z,0.00
2019-04-26T01:23:44.237Z,0.00
2019-04-26T01:24:44.209Z,0.00
2019-04-26T01:25:44.269Z,0.00
2019-04-26T01:26:44.152Z,0.00
2019-04-26T01:27:44.138Z,0.00
2019-04-26T01:28:44.098Z,0.00
2019-04-26T01:29:44.076Z,0.00
2019-04-26T01:30:44.084Z,0.00
2019-04-26T01:31:44.021Z,0.00
2019-04-26T01:32:43.996Z,0.00
2019-04-26T01:33:43.964Z,0.00
2019-04-26T01:34:43.944Z,0.00
2019-04-26T01:35:43.936Z,0.00
2019-04-26T01:36:43.886Z,0.00
2019-04-26T01:37:43.858Z,0.00
2019-04-26T01:38:43.847Z,0.00
2019-04-26T01:39:43.819Z,0.00
2019-04-26T01:40:43.800Z,0.00
2019-04-26T01:41:43.753Z,0.00
2019-04-26T01:42:43.744Z,0.00
2019-04-26T01:43:43.735Z,0.00
2019-04-26T01:44:43.670Z,0.00
2019-04-26T01:45:43.671Z,0.00
2019-04-26T01:46:43.614Z,0.00
2019-04-26T01:47:43.588Z,0.00
2019-04-26T01:48:43.566Z,0.00
2019-04-26T01:49:43.543Z,0.00
2019-04-26T01:50:43.535Z,0.00
2019-04-26T01:51:43.482Z,0.00
2019-04-26T01:52:43.455Z,0.00
2019-04-26T01:53:43.438Z,0.00
2019-04-26T01:54:43.401Z,0.00
2019-04-26T01:55:43.407Z,0.00
2019-04-26T01:56:43.371Z,0.00
2019-04-26T01:57:43.352Z,0.00
2019-04-26T01:58:43.292Z,0.00
2019-04-26T01:59:43.274Z,0.00
2019-04-26T02:00:43.241Z,0.00
2019-04-26T02:01:43.241Z,0.00
2019-04-26T02:02:43.187Z,0.00
2019-04-26T02:03:43.161Z,0.00
2019-04-26T02:04:43.138Z,0.00
2019-04-26T02:05:43.144Z,0.00
2019-04-26T02:06:43.100Z,0.00
2019-04-26T02:07:43.050Z,0.00
2019-04-26T02:08:43.030Z,0.00
2019-04-26T02:09:42.999Z,0.00
2019-04-26T02:10:42.969Z,0.00
2019-04-26T02:11:42.966Z,0.00
2019-04-26T02:12:42.917Z,0.00
2019-04-26T02:13:42.894Z,0.00
2019-04-26T02:14:42.860Z,0.00
2019-04-26T02:15:43.456Z,0.00
2019-04-26T02:16:42.834Z,0.00
2019-04-26T02:17:42.788Z,0.00
2019-04-26T02:18:42.754Z,0.00
2019-04-26T02:19:42.741Z,0.00
2019-04-26T02:20:42.706Z,0.00
2019-04-26T02:21:42.695Z,0.00
2019-04-26T02:22:42.647Z,0.00
2019-04-26T02:23:42.615Z,0.00
2019-04-26T02:24:42.591Z,0.00
2019-04-26T02:25:42.564Z,0.00
2019-04-26T02:26:42.582Z,0.00
2019-04-26T02:27:42.513Z,0.00
2019-04-26T02:28:42.484Z,0.00
2019-04-26T02:29:42.464Z,0.00
2019-04-26T02:30:42.429Z,0.00
2019-04-26T02:31:42.423Z,0.00
2019-04-26T02:32:42.375Z,0.00
2019-04-26T02:33:42.346Z,0.00
2019-04-26T02:34:42.322Z,0.00
2019-04-26T02:35:42.298Z,0.00
2019-04-26T02:36:57.273Z,0.00
2019-04-26T02:37:42.264Z,0.00
2019-04-26T02:38:42.215Z,0.00
2019-04-26T02:39:42.185Z,0.00
2019-04-26T02:40:42.157Z,0.00
2019-04-26T02:41:42.149Z,0.00
2019-04-26T02:42:42.149Z,0.00
2019-04-26T02:43:42.077Z,0.00
2019-04-26T02:44:42.050Z,0.00
2019-04-26T02:45:42.031Z,0.00
2019-04-26T02:46:42.005Z,0.00
2019-04-26T02:47:41.992Z,0.00
2019-04-26T02:48:41.949Z,0.00
2019-04-26T02:49:41.918Z,0.00
2019-04-26T02:50:41.890Z,0.00
2019-04-26T02:51:41.876Z,0.00
2019-04-26T02:52:41.855Z,0.00
2019-04-26T02:53:41.810Z,0.00
2019-04-26T02:54:41.787Z,0.00
2019-04-26T02:55:42.688Z,0.00
2019-04-26T02:56:41.732Z,0.00
2019-04-26T02:57:41.720Z,0.00
2019-04-26T02:58:41.677Z,0.00
2019-04-26T02:59:41.646Z,0.00
2019-04-26T03:00:41.625Z,0.00
2019-04-26T03:01:41.591Z,0.00
2019-04-26T03:02:41.635Z,0.00
2019-04-26T03:03:41.537Z,0.00
2019-04-26T03:04:41.515Z,0.00
2019-04-26T03:05:41.487Z,0.00
2019-04-26T03:06:42.857Z,0.00
2019-04-26T03:07:42.801Z,0.00
2019-04-26T03:08:42.649Z,0.00
2019-04-26T03:09:43.024Z,0.00
2019-04-26T03:10:41.345Z,0.00
2019-04-26T03:11:41.332Z,0.00
2019-04-26T03:12:41.368Z,0.00
2019-04-26T03:13:41.264Z,0.00
2019-04-26T03:14:41.960Z,0.00
2019-04-26T03:15:42.564Z,0.00
2019-04-26T03:16:42.862Z,0.00
2019-04-26T03:17:41.153Z,0.00
2019-04-26T03:18:42.868Z,0.00
2019-04-26T03:19:41.100Z,0.00
2019-04-26T03:20:42.212Z,0.00
2019-04-26T03:21:41.068Z,0.00
2019-04-26T03:22:42.557Z,0.00
2019-04-26T03:23:53.288Z,0.00
2019-04-26T03:24:42.460Z,0.00
2019-04-26T03:25:42.209Z,0.00
2019-04-26T03:26:41.602Z,0.00
2019-04-26T03:27:41.877Z,0.00
2019-04-26T03:28:43.097Z,0.00
2019-04-26T03:29:41.926Z,0.00
2019-04-26T03:30:49.086Z,0.00
2019-04-26T03:31:51.925Z,0.00
2019-04-26T03:32:50.489Z,0.00
2019-04-26T03:33:50.015Z,0.00
2019-04-26T03:34:52.618Z,5.63
2019-04-26T03:35:54.912Z,5.63
2019-04-26T03:36:42.402Z,5.63
2019-04-26T03:37:42.619Z,5.63
2019-04-26T03:38:41.923Z,5.63
2019-04-26T03:39:42.435Z,11.25
2019-04-26T03:40:42.446Z,11.25
2019-04-26T03:41:41.099Z,11.25
2019-04-26T03:42:42.212Z,11.25
2019-04-26T03:43:41.234Z,11.25
2019-04-26T03:44:42.059Z,11.25
2019-04-26T03:45:42.432Z,11.25
2019-04-26T03:46:41.828Z,11.25
2019-04-26T03:47:42.780Z,11.25
2019-04-26T03:48:41.584Z,16.88
2019-04-26T03:49:41.999Z,16.88
2019-04-26T03:50:41.033Z,16.88
2019-04-26T03:51:41.150Z,16.88
2019-04-26T03:52:41.691Z,22.50
2019-04-26T03:53:41.901Z,22.50
2019-04-26T03:54:41.056Z,28.13
2019-04-26T03:55:41.559Z,28.13
2019-04-26T03:56:41.706Z,28.13
2019-04-26T03:57:41.839Z,33.75
2019-04-26T03:58:40.503Z,33.75
2019-04-26T03:59:40.732Z,33.75
2019-04-26T04:00:41.337Z,39.38
2019-04-26T04:01:41.258Z,39.38
2019-04-26T04:02:41.381Z,45.00
2019-04-26T04:03:43.087Z,45.00
2019-04-26T04:04:41.581Z,45.00
2019-04-26T04:05:41.540Z,45.00
2019-04-26T04:06:56.752Z,50.63
2019-04-26T04:07:45.286Z,50.63
2019-04-26T04:08:40.855Z,56.25
2019-04-26T04:09:41.051Z,61.88
2019-04-26T04:10:41.483Z,61.88
2019-04-26T04:11:40.815Z,67.50
2019-04-26T04:12:41.471Z,67.50
2019-04-26T04:13:43.240Z,73.13
2019-04-26T04:14:40.630Z,78.75
2019-04-26T04:15:40.612Z,84.38
2019-04-26T04:16:42.453Z,84.38
2019-04-26T04:17:41.927Z,90.00
2019-04-26T04:18:40.441Z,95.63
2019-04-26T04:19:40.928Z,90.00
2019-04-26T04:20:40.861Z,95.63
2019-04-26T04:21:40.723Z,95.63
2019-04-26T04:22:41.296Z,101.25
2019-04-26T04:23:39.849Z,101.25
2019-04-26T04:24:41.330Z,106.88
2019-04-26T04:25:41.171Z,106.88
2019-04-26T04:26:40.924Z,112.50
2019-04-26T04:27:40.137Z,112.50
2019-04-26T04:28:40.463Z,118.13
2019-04-26T04:29:46.239Z,118.13
2019-04-26T04:30:40.644Z,123.75
2019-04-26T04:31:40.484Z,129.38
2019-04-26T04:32:40.280Z,135.00
2019-04-26T04:33:40.737Z,140.63
2019-04-26T04:34:41.491Z,146.25
2019-04-26T04:35:40.493Z,151.88
2019-04-26T04:36:41.494Z,151.88
2019-04-26T04:37:56.482Z,151.88
2019-04-26T04:38:40.903Z,157.50
2019-04-26T04:39:40.805Z,168.75
2019-04-26T04:40:38.909Z,168.75
2019-04-26T04:41:38.857Z,163.13
2019-04-26T04:42:38.893Z,163.13
2019-04-26T04:43:41.939Z,163.13
2019-04-26T04:44:38.779Z,163.13
2019-04-26T04:45:38.921Z,163.13
2019-04-26T04:46:38.734Z,168.75
2019-04-26T04:47:38.707Z,174.38
2019-04-26T04:48:38.675Z,180.00
2019-04-26T04:49:38.650Z,185.63
2019-04-26T04:50:38.653Z,196.88
2019-04-26T04:51:38.596Z,208.13
2019-04-26T04:52:38.572Z,219.38
2019-04-26T04:53:38.544Z,225.00
2019-04-26T04:54:38.513Z,219.38
2019-04-26T04:55:38.512Z,213.75
2019-04-26T04:56:38.463Z,202.50
2019-04-26T04:57:38.442Z,202.50
2019-04-26T04:58:38.405Z,196.88
2019-04-26T04:59:38.381Z,196.88
2019-04-26T05:00:38.392Z,191.25
2019-04-26T05:01:38.337Z,191.25
2019-04-26T05:02:38.381Z,191.25
2019-04-26T05:03:38.281Z,196.88
2019-04-26T05:04:38.255Z,196.88
2019-04-26T05:05:38.248Z,191.25
2019-04-26T05:06:38.201Z,191.25
2019-04-26T05:07:38.213Z,185.63
2019-04-26T05:08:38.147Z,180.00
2019-04-26T05:09:38.127Z,180.00
2019-04-26T05:10:38.117Z,180.00
2019-04-26T05:11:38.071Z,185.63
2019-04-26T05:12:38.051Z,196.88
2019-04-26T05:13:38.020Z,208.13
2019-04-26T05:14:37.994Z,213.75
2019-04-26T05:15:37.990Z,225.00
2019-04-26T05:16:37.944Z,230.63
2019-04-26T05:17:37.913Z,241.88
2019-04-26T05:18:37.884Z,253.13
2019-04-26T05:19:37.868Z,270.00
2019-04-26T05:20:37.877Z,281.25
2019-04-26T05:21:37.810Z,298.13
2019-04-26T05:22:37.793Z,309.38
2019-04-26T05:23:37.759Z,315.00
2019-04-26T05:24:37.734Z,315.00
2019-04-26T05:25:40.192Z,320.63
2019-04-26T05:26:37.702Z,331.88
2019-04-26T05:27:37.663Z,337.50
2019-04-26T05:28:37.635Z,343.13
2019-04-26T05:29:37.607Z,343.13
2019-04-26T05:30:37.584Z,331.88
2019-04-26T05:31:37.575Z,320.63
2019-04-26T05:32:37.528Z,315.00
2019-04-26T05:33:37.512Z,315.00
2019-04-26T05:34:37.478Z,309.38
2019-04-26T05:35:37.456Z,303.75
2019-04-26T05:36:37.450Z,298.13
2019-04-26T05:37:37.405Z,298.13
2019-04-26T05:38:37.384Z,303.75
2019-04-26T05:39:37.361Z,309.38
2019-04-26T05:40:37.349Z,309.38
2019-04-26T05:41:37.325Z,309.38
2019-04-26T05:42:37.276Z,309.38
2019-04-26T05:43:37.257Z,303.75
2019-04-26T05:44:37.230Z,298.13
2019-04-26T05:45:37.204Z,298.13
2019-04-26T05:46:37.205Z,298.13
2019-04-26T05:47:37.154Z,303.75
2019-04-26T05:48:37.132Z,309.38
2019-04-26T05:49:37.177Z,320.63
2019-04-26T05:50:37.081Z,337.50
2019-04-26T05:51:37.079Z,365.63
2019-04-26T05:52:37.032Z,393.75
2019-04-26T05:53:37.006Z,433.13
2019-04-26T05:54:36.978Z,450.00
2019-04-26T05:55:36.958Z,472.50
2019-04-26T05:56:36.957Z,472.50
2019-04-26T05:57:36.908Z,483.75
2019-04-26T05:58:36.884Z,489.38
2019-04-26T05:59:36.926Z,506.25
2019-04-26T06:00:36.840Z,506.25
2019-04-26T06:01:36.845Z,511.88
2019-04-26T06:02:36.800Z,495.00
2019-04-26T06:03:36.762Z,489.38
2019-04-26T06:04:36.742Z,483.75
2019-04-26T06:05:36.721Z,489.38
2019-04-26T06:06:38.632Z,489.38
2019-04-26T06:07:39.627Z,506.25
2019-04-26T06:09:14.258Z,506.25
2019-04-26T06:09:38.625Z,500.63
2019-04-26T06:10:36.612Z,489.38
2019-04-26T06:11:36.591Z,489.38
2019-04-26T06:12:36.584Z,495.00
2019-04-26T06:13:36.534Z,489.38
2019-04-26T06:14:36.509Z,478.13
2019-04-26T06:15:36.483Z,478.13
2019-04-26T06:16:36.464Z,472.50
2019-04-26T06:17:36.521Z,455.63
2019-04-26T06:18:36.419Z,438.75
2019-04-26T06:19:36.399Z,421.88
2019-04-26T06:20:36.374Z,410.63
2019-04-26T06:21:36.356Z,388.13
2019-04-26T06:22:36.351Z,371.25
2019-04-26T06:23:36.305Z,360.00
2019-04-26T06:24:36.288Z,354.38
2019-04-26T06:25:38.020Z,331.88
2019-04-26T06:26:36.247Z,320.63
2019-04-26T06:27:36.238Z,315.00
2019-04-26T06:28:36.191Z,315.00
2019-04-26T06:29:36.169Z,309.38
2019-04-26T06:30:45.220Z,303.75
2019-04-26T06:31:36.128Z,309.38
2019-04-26T06:32:36.202Z,315.00
2019-04-26T06:33:36.081Z,326.25
2019-04-26T06:34:36.052Z,331.88
2019-04-26T06:35:36.031Z,343.13
2019-04-26T06:36:36.017Z,354.38
2019-04-26T06:37:36.010Z,376.88
2019-04-26T06:38:43.731Z,371.25
2019-04-26T06:39:35.947Z,365.63
2019-04-26T06:40:41.831Z,376.88
2019-04-26T06:41:35.901Z,365.63
2019-04-26T06:42:35.936Z,371.25
2019-04-26T06:43:35.849Z,382.50
2019-04-26T06:44:35.825Z,421.88
2019-04-26T06:45:35.806Z,455.63
2019-04-26T06:46:35.779Z,478.13
2019-04-26T06:47:35.762Z,500.63
2019-04-26T06:48:35.758Z,506.25
2019-04-26T06:49:35.715Z,495.00
2019-04-26T06:50:35.690Z,495.00
2019-04-26T06:51:35.667Z,489.38
2019-04-26T06:52:35.643Z,489.38
2019-04-26T06:53:35.644Z,500.63
2019-04-26T06:54:35.656Z,489.38
2019-04-26T06:55:35.578Z,500.63
2019-04-26T06:56:35.554Z,506.25
2019-04-26T06:57:35.530Z,506.25
2019-04-26T06:58:35.534Z,500.63
2019-04-26T06:59:36.445Z,489.38
2019-04-26T07:00:35.470Z,506.25
2019-04-26T07:01:35.442Z,528.75
2019-04-26T07:02:35.420Z,551.25
2019-04-26T07:03:35.420Z,551.25
2019-04-26T07:04:35.378Z,545.63
2019-04-26T07:05:35.356Z,534.38
2019-04-26T07:06:35.503Z,523.13
2019-04-26T07:07:35.315Z,523.13
2019-04-26T07:08:35.313Z,517.50
2019-04-26T07:09:35.272Z,517.50
2019-04-26T07:10:35.248Z,534.38
2019-04-26T07:11:35.226Z,568.13
2019-04-26T07:12:35.202Z,585.00
2019-04-26T07:13:35.213Z,596.25
2019-04-26T07:14:35.161Z,596.25
2019-04-26T07:15:35.143Z,601.88
2019-04-26T07:16:35.124Z,618.75
2019-04-26T07:17:35.102Z,613.13
2019-04-26T07:18:35.077Z,601.88
2019-04-26T07:19:35.082Z,607.50
2019-04-26T07:20:35.039Z,618.75
2019-04-26T07:21:35.018Z,635.63
2019-04-26T07:22:35.871Z,607.50
2019-04-26T07:23:34.978Z,596.25
2019-04-26T07:24:34.975Z,579.38
2019-04-26T07:25:34.936Z,573.75
2019-04-26T07:26:34.924Z,573.75
2019-04-26T07:27:34.893Z,590.63
2019-04-26T07:28:34.872Z,607.50
2019-04-26T07:29:34.879Z,613.13
2019-04-26T07:30:34.835Z,630.00
2019-04-26T07:31:34.812Z,646.88
2019-04-26T07:32:34.798Z,646.88
2019-04-26T07:33:34.771Z,635.63
2019-04-26T07:34:34.782Z,624.38
2019-04-26T07:35:34.732Z,596.25
2019-04-26T07:36:34.718Z,585.00
2019-04-26T07:37:34.700Z,562.50
2019-04-26T07:38:34.672Z,551.25
2019-04-26T07:39:34.693Z,545.63
2019-04-26T07:40:34.647Z,534.38
2019-04-26T07:41:34.614Z,523.13
2019-04-26T07:42:34.604Z,511.88
2019-04-26T07:43:34.583Z,500.63
2019-04-26T07:44:34.577Z,495.00
2019-04-26T07:45:34.534Z,495.00
2019-04-26T07:46:34.510Z,506.25
2019-04-26T07:47:34.491Z,528.75
2019-04-26T07:48:34.510Z,545.63
2019-04-26T07:49:34.454Z,562.50
2019-04-26T07:50:34.464Z,568.13
2019-04-26T07:51:34.466Z,579.38
2019-04-26T07:52:34.396Z,573.75
2019-04-26T07:53:34.371Z,579.38
2019-04-26T07:54:34.353Z,607.50
2019-04-26T07:55:34.359Z,630.00
2019-04-26T07:56:34.312Z,658.13
2019-04-26T07:57:34.294Z,680.63
2019-04-26T07:58:34.278Z,697.50
2019-04-26T07:59:34.253Z,703.13
2019-04-26T08:00:44.327Z,708.75
2019-04-26T08:01:34.219Z,714.38
2019-04-26T08:02:34.195Z,714.38
2019-04-26T08:03:34.180Z,703.13
2019-04-26T08:04:34.164Z,675.00
2019-04-26T08:05:34.164Z,663.75
2019-04-26T08:06:34.116Z,652.50
2019-04-26T08:07:34.101Z,646.88
2019-04-26T08:08:34.080Z,663.75
2019-04-26T08:09:34.056Z,691.88
2019-04-26T08:10:34.061Z,714.38
2019-04-26T08:11:34.020Z,731.25
2019-04-26T08:12:34.007Z,742.50
2019-04-26T08:13:33.982Z,753.75
2019-04-26T08:14:33.959Z,770.63
2019-04-26T08:15:33.979Z,781.88
2019-04-26T08:16:33.920Z,798.75
2019-04-26T08:17:33.907Z,815.63
2019-04-26T08:18:33.894Z,815.63
2019-04-26T08:19:33.869Z,826.88
2019-04-26T08:20:33.877Z,815.63
2019-04-26T08:21:33.829Z,793.13
2019-04-26T08:22:33.918Z,753.75
2019-04-26T08:23:42.190Z,725.63
2019-04-26T08:24:33.777Z,720.00
2019-04-26T08:25:33.752Z,742.50
2019-04-26T08:26:33.753Z,748.13
2019-04-26T08:27:33.718Z,742.50
2019-04-26T08:28:33.697Z,720.00
2019-04-26T08:29:34.647Z,697.50
2019-04-26T08:30:33.666Z,703.13
2019-04-26T08:31:33.664Z,714.38
2019-04-26T08:32:33.648Z,731.25
2019-04-26T08:33:33.601Z,731.25
2019-04-26T08:34:33.876Z,748.13
2019-04-26T08:35:33.579Z,759.38
2019-04-26T08:36:33.580Z,748.13
2019-04-26T08:37:36.494Z,748.13
2019-04-26T08:38:33.505Z,720.00
2019-04-26T08:39:45.027Z,691.88
2019-04-26T08:40:33.477Z,680.63
2019-04-26T08:41:35.263Z,675.00
2019-04-26T08:42:33.483Z,652.50
2019-04-26T08:43:33.411Z,630.00
2019-04-26T08:44:34.517Z,601.88
2019-04-26T08:45:33.379Z,585.00
2019-04-26T08:46:36.275Z,590.63
2019-04-26T08:47:33.338Z,601.88
2019-04-26T08:48:33.323Z,607.50
2019-04-26T08:49:35.054Z,607.50
2019-04-26T08:50:33.285Z,596.25
2019-04-26T08:51:33.288Z,573.75
2019-04-26T08:52:33.254Z,551.25
2019-04-26T08:53:33.232Z,534.38
2019-04-26T08:54:33.208Z,506.25
2019-04-26T08:55:33.194Z,489.38
2019-04-26T08:56:33.210Z,478.13
2019-04-26T08:57:33.152Z,472.50
2019-04-26T08:58:33.132Z,461.25
2019-04-26T08:59:33.121Z,450.00
2019-04-26T09:00:33.093Z,444.38
2019-04-26T09:01:33.087Z,438.75
2019-04-26T09:02:33.222Z,427.50
2019-04-26T09:03:33.045Z,421.88
2019-04-26T09:04:33.015Z,427.50
2019-04-26T09:05:33.008Z,433.13
2019-04-26T09:06:32.993Z,438.75
2019-04-26T09:07:33.065Z,438.75
2019-04-26T09:08:33.064Z,444.38
2019-04-26T09:09:32.921Z,444.38
2019-04-26T09:10:32.902Z,444.38
2019-04-26T09:11:33.950Z,444.38
2019-04-26T09:12:32.880Z,433.13
2019-04-26T09:13:32.842Z,427.50
2019-04-26T09:14:32.923Z,427.50
2019-04-26T09:15:32.895Z,427.50
2019-04-26T09:16:32.896Z,421.88
2019-04-26T09:17:33.831Z,421.88
2019-04-26T09:18:42.312Z,438.75
2019-04-26T09:19:32.768Z,472.50
2019-04-26T09:20:32.747Z,511.88
2019-04-26T09:21:32.715Z,545.63
2019-04-26T09:22:32.754Z,585.00
2019-04-26T09:23:39.854Z,624.38
2019-04-26T09:24:32.615Z,658.13
2019-04-26T09:25:34.611Z,669.38
2019-04-26T09:26:32.645Z,697.50
2019-04-26T09:27:32.579Z,708.75
2019-04-26T09:28:32.533Z,708.75
2019-04-26T09:29:32.515Z,703.13
2019-04-26T09:30:34.296Z,703.13
2019-04-26T09:31:32.471Z,708.75
2019-04-26T09:32:32.480Z,720.00
2019-04-26T09:33:35.932Z,759.38
2019-04-26T09:34:32.416Z,793.13
2019-04-26T09:35:32.388Z,826.88
2019-04-26T09:36:32.550Z,866.25
2019-04-26T09:37:32.358Z,888.75
2019-04-26T09:38:32.353Z,900.00
2019-04-26T09:39:32.308Z,905.63
2019-04-26T09:40:32.306Z,905.63
2019-04-26T09:41:32.311Z,916.88
2019-04-26T09:42:32.261Z,928.13
2019-04-26T09:43:32.251Z,961.88
2019-04-26T09:44:32.209Z,978.75
2019-04-26T09:45:32.197Z,1006.88
2019-04-26T09:46:32.214Z,1023.75
2019-04-26T09:47:32.231Z,1035.00
2019-04-26T09:48:32.159Z,1012.50
2019-04-26T09:49:32.120Z,995.63
2019-04-26T09:50:32.095Z,939.38
2019-04-26T09:51:34.766Z,883.13
2019-04-26T09:52:32.068Z,832.50
2019-04-26T09:53:32.097Z,776.25
2019-04-26T09:54:32.078Z,736.88
2019-04-26T09:55:35.486Z,703.13
2019-04-26T09:56:32.035Z,691.88
2019-04-26T09:57:31.970Z,680.63
2019-04-26T09:58:32.282Z,663.75
2019-04-26T09:59:31.938Z,646.88
2019-04-26T10:00:31.913Z,646.88
2019-04-26T10:01:31.894Z,635.63
2019-04-26T10:02:33.823Z,624.38
2019-04-26T10:03:34.228Z,618.75
2019-04-26T10:04:31.833Z,613.13
2019-04-26T10:05:31.815Z,601.88
2019-04-26T10:06:31.826Z,607.50
2019-04-26T10:07:33.436Z,596.25
2019-04-26T10:08:31.783Z,585.00
2019-04-26T10:09:31.738Z,568.13
2019-04-26T10:10:35.230Z,556.88
2019-04-26T10:11:31.704Z,545.63
2019-04-26T10:12:31.686Z,528.75
2019-04-26T10:13:31.699Z,528.75
2019-04-26T10:14:31.644Z,506.25
2019-04-26T10:15:31.625Z,489.38
2019-04-26T10:16:33.528Z,472.50
2019-04-26T10:17:31.611Z,450.00
2019-04-26T10:18:31.593Z,450.00
2019-04-26T10:19:31.897Z,433.13
2019-04-26T10:20:31.527Z,427.50
2019-04-26T10:21:31.524Z,416.25
2019-04-26T10:22:31.484Z,410.63
2019-04-26T10:23:31.493Z,405.00
2019-04-26T10:24:31.452Z,399.38
2019-04-26T10:25:31.427Z,388.13
2019-04-26T10:26:31.408Z,382.50
2019-04-26T10:27:32.542Z,388.13
2019-04-26T10:28:31.401Z,376.88
2019-04-26T10:29:31.344Z,365.63
2019-04-26T10:30:31.324Z,371.25
2019-04-26T10:31:31.305Z,376.88
2019-04-26T10:32:31.281Z,376.88
2019-04-26T10:33:32.611Z,376.88
2019-04-26T10:34:31.263Z,376.88
2019-04-26T10:35:31.220Z,388.13
2019-04-26T10:36:31.497Z,388.13
2019-04-26T10:37:39.156Z,388.13
2019-04-26T10:38:31.162Z,393.75
2019-04-26T10:39:39.243Z,393.75
2019-04-26T10:40:35.780Z,399.38
2019-04-26T10:41:31.145Z,405.00
2019-04-26T10:42:31.074Z,405.00
2019-04-26T10:43:31.117Z,399.38
2019-04-26T10:44:31.060Z,399.38
2019-04-26T10:45:31.007Z,393.75
2019-04-26T10:46:30.990Z,393.75
2019-04-26T10:47:34.273Z,393.75
2019-04-26T10:48:30.955Z,393.75
2019-04-26T10:49:30.948Z,388.13
2019-04-26T10:50:33.116Z,388.13
2019-04-26T10:51:30.880Z,382.50
2019-04-26T10:52:30.873Z,382.50
2019-04-26T10:53:31.965Z,382.50
2019-04-26T10:54:30.850Z,388.13
2019-04-26T10:55:30.801Z,388.13
2019-04-26T10:56:30.777Z,388.13
2019-04-26T10:57:30.757Z,382.50
2019-04-26T10:58:31.963Z,376.88
2019-04-26T10:59:31.861Z,371.25
2019-04-26T11:00:30.691Z,376.88
2019-04-26T11:01:30.682Z,382.50
2019-04-26T11:02:30.652Z,382.50
2019-04-26T11:03:30.632Z,382.50
2019-04-26T11:04:30.633Z,399.38
2019-04-26T11:05:30.595Z,416.25
2019-04-26T11:06:30.645Z,427.50
2019-04-26T11:07:30.608Z,444.38
2019-04-26T11:08:30.583Z,438.75
2019-04-26T11:09:30.649Z,450.00
2019-04-26T11:10:30.480Z,450.00
2019-04-26T11:11:30.460Z,455.63
2019-04-26T11:12:30.448Z,461.25
2019-04-26T11:13:30.417Z,466.88
2019-04-26T11:14:30.397Z,466.88
2019-04-26T11:15:32.612Z,472.50
2019-04-26T11:16:30.359Z,472.50
2019-04-26T11:17:30.333Z,466.88
2019-04-26T11:18:30.310Z,450.00
2019-04-26T11:19:32.024Z,438.75
2019-04-26T11:20:30.296Z,438.75
2019-04-26T11:21:30.251Z,427.50
2019-04-26T11:22:33.448Z,427.50
2019-04-26T11:23:30.221Z,427.50
2019-04-26T11:24:30.186Z,433.13
2019-04-26T11:25:30.234Z,427.50
2019-04-26T11:26:31.096Z,416.25
2019-04-26T11:27:30.128Z,410.63
2019-04-26T11:28:30.146Z,405.00
2019-04-26T11:29:30.212Z,399.38
2019-04-26T11:30:30.083Z,388.13
2019-04-26T11:31:30.121Z,371.25
2019-04-26T11:32:33.140Z,360.00
2019-04-26T11:33:29.998Z,360.00
2019-04-26T11:34:29.991Z,360.00
2019-04-26T11:35:33.202Z,371.25
2019-04-26T11:36:29.993Z,388.13
2019-04-26T11:37:29.922Z,405.00
2019-04-26T11:38:31.198Z,427.50
2019-04-26T11:39:29.893Z,438.75
2019-04-26T11:40:29.888Z,444.38
2019-04-26T11:41:29.879Z,438.75
2019-04-26T11:42:29.875Z,438.75
2019-04-26T11:43:29.789Z,433.13
2019-04-26T11:44:29.886Z,427.50
2019-04-26T11:45:29.849Z,410.63
2019-04-26T11:46:30.359Z,410.63
2019-04-26T11:47:29.767Z,405.00
2019-04-26T11:48:30.649Z,399.38
2019-04-26T11:49:29.719Z,393.75
2019-04-26T11:50:29.642Z,405.00
2019-04-26T11:51:29.662Z,405.00
2019-04-26T11:52:32.247Z,399.38
2019-04-26T11:53:29.654Z,416.25
2019-04-26T11:54:29.559Z,399.38
2019-04-26T11:55:30.255Z,399.38
2019-04-26T11:56:29.519Z,405.00
2019-04-26T11:57:29.501Z,399.38
2019-04-26T11:58:29.529Z,393.75
2019-04-26T11:59:30.664Z,393.75
2019-04-26T12:00:29.444Z,388.13
2019-04-26T12:01:29.423Z,416.25
2019-04-26T12:02:29.396Z,444.38
2019-04-26T12:03:29.419Z,455.63
2019-04-26T12:04:29.352Z,461.25
2019-04-26T12:05:29.332Z,517.50
2019-04-26T12:06:29.308Z,562.50
2019-04-26T12:07:29.289Z,562.50
2019-04-26T12:08:29.293Z,556.88
2019-04-26T12:09:29.251Z,551.25
2019-04-26T12:10:29.227Z,545.63
2019-04-26T12:11:36.156Z,545.63
2019-04-26T12:12:29.183Z,540.00
2019-04-26T12:13:29.187Z,534.38
2019-04-26T12:14:29.456Z,523.13
2019-04-26T12:15:30.412Z,495.00
2019-04-26T12:16:29.129Z,500.63
2019-04-26T12:17:31.206Z,495.00
2019-04-26T12:18:29.083Z,466.88
2019-04-26T12:19:29.067Z,461.25
2019-04-26T12:20:29.017Z,466.88
2019-04-26T12:21:30.376Z,489.38
2019-04-26T12:22:28.974Z,472.50
2019-04-26T12:23:28.957Z,472.50
2019-04-26T12:24:29.983Z,478.13
2019-04-26T12:25:31.076Z,489.38
2019-04-26T12:26:28.917Z,523.13
2019-04-26T12:27:30.657Z,545.63
2019-04-26T12:28:28.860Z,585.00
2019-04-26T12:29:28.833Z,596.25
2019-04-26T12:30:28.819Z,590.63
2019-04-26T12:31:28.889Z,585.00
2019-04-26T12:32:28.782Z,545.63
2019-04-26T12:33:28.753Z,517.50
2019-04-26T12:34:28.732Z,545.63
2019-04-26T12:35:30.116Z,545.63
2019-04-26T12:36:28.709Z,534.38
2019-04-26T12:37:28.690Z,540.00
2019-04-26T12:38:30.044Z,556.88
2019-04-26T12:39:32.309Z,590.63
2019-04-26T12:40:28.609Z,613.13
2019-04-26T12:41:40.009Z,624.38
2019-04-26T12:42:28.666Z,624.38
2019-04-26T12:43:28.546Z,635.63